Weather at Lummen heliport

Public forecast

Using degrees Celsius for public forecast. Weather courtesy of forecast.io.

Closest aviation weather report (METAR) to Lummen heliport

Closest report is Schaffen Airfield, 6.6 nm (12.2 km) W. Retrieved 2021/08/05 14:55 UTC (11 minutes ago):

EBDT 051455Z AUTO 23004KT 9999 SCT045/// 23/14 Q1006 BLU

Closest aviation forecast (TAF) to Lummen heliport

Forecast is more than 12 hours old.

Closest forecast is Schaffen Airfield, 6.6 nm (12.2 km) W. Retrieved 2021/05/27 19:57 UTC (2 months ago):

TAF EBDT 271541Z 2719/2807 30010KT 9999 SCT025 BKN035 BECMG 2720/2722 33005KT FEW020 PROB40 TEMPO 2802/2806 VRB03KT 1600 BR SCT002